Hanjin Buchanan — 3FHB4 — position and weather

sailwx.info

Track history (hours):
 
Tides and Currents Weather Stations Pressure Air Temp Water Temp Dewpoint Dewpoint Depression Visibility Wind Speed Wind Dir Waves Ship Positions

Hanjin Buchanan

Last reported at 2016-Aug-27 17:04 UTC. Time now 2016-Aug-28 05:06 UTC.
Position N 36°49' W 075°47'.

Length 255 m; draft 14.3 m.

Type: Cargo ship. MMSI: 357568000.

Date/timePositionNaut miles runAvg speedWind from/ knotsBaromVisibWave heightAir tempDewpointWater temp
2016-Aug-27 17:04N 36°49' W 075°47'611.7
2016-Aug-27 16:33N 36°53' W 075°53'1110.9
2016-Aug-27 15:33N 37°01' W 076°02'17 8.4
2016-Aug-27 13:33N 37°17' W 076°07'1110.7
2016-Aug-27 12:33N 37°27' W 076°04'3110.3
2016-Aug-27 09:31N 37°58' W 076°11'1912.9
2016-Aug-27 08:03N 38°17' W 076°17'713.4
2016-Aug-27 07:33N 38°23' W 076°20'1312.6
2016-Aug-27 06:33N 38°35' W 076°26'2412.2
2016-Aug-27 04:33N 38°59' W 076°23'9 8.8
2016-Aug-27 03:33N 39°08' W 076°24'9 8.7
2016-Aug-27 02:33N 39°13' W 076°32'2 0.8
2016-Aug-26 23:30N 39°15' W 076°34'0 0.0
2016-Aug-26 22:30N 39°15' W 076°34'0 0.0
2016-Aug-26 21:30N 39°15' W 076°34'0 0.0
2016-Aug-26 20:30N 39°15' W 076°34'0 0.0
2016-Aug-26 19:30N 39°15' W 076°34'0 0.0
2016-Aug-26 18:30N 39°15' W 076°34'0 0.0
2016-Aug-26 17:30N 39°15' W 076°34'0 0.0
2016-Aug-26 10:31N 39°15' W 076°34'0 0.0
2016-Aug-26 06:25N 39°15' W 076°34'3 0.1
2016-Aug-25 12:32N 39°13' W 076°32'10 9.9
2016-Aug-25 11:33N 39°06' W 076°24'1514.0
2016-Aug-25 10:31N 38°52' W 076°24'1714.4
2016-Aug-25 09:20N 38°35' W 076°26'3014.6
2016-Aug-25 07:19N 38°07' W 076°14'7113.6
2016-Aug-25 02:05N 36°57' W 075°58'610.4
2016-Aug-25 01:33N 36°54' W 075°53'  
Track history (hours):
 
Tides and Currents Weather Stations Pressure Air Temp Water Temp Dewpoint Dewpoint Depression Visibility Wind Speed Wind Dir Waves Ship Positions

Hanjin Buchanan

Last reported at 2016-Aug-27 17:04 UTC. Time now 2016-Aug-28 05:06 UTC.
Position N 36°49' W 075°47'.

Length 255 m; draft 14.3 m.

Type: Cargo ship. MMSI: 357568000.

Date/timePositionNaut miles runAvg speedWind from/ knotsBaromVisibWave heightAir tempDewpointWater temp
2016-Aug-27 17:04N 36°49' W 075°47'611.7
2016-Aug-27 16:33N 36°53' W 075°53'1110.9
2016-Aug-27 15:33N 37°01' W 076°02'17 8.4
2016-Aug-27 13:33N 37°17' W 076°07'1110.7
2016-Aug-27 12:33N 37°27' W 076°04'3110.3
2016-Aug-27 09:31N 37°58' W 076°11'1912.9
2016-Aug-27 08:03N 38°17' W 076°17'713.4
2016-Aug-27 07:33N 38°23' W 076°20'1312.6
2016-Aug-27 06:33N 38°35' W 076°26'2412.2
2016-Aug-27 04:33N 38°59' W 076°23'9 8.8
2016-Aug-27 03:33N 39°08' W 076°24'9 8.7
2016-Aug-27 02:33N 39°13' W 076°32'2 0.8
2016-Aug-26 23:30N 39°15' W 076°34'0 0.0
2016-Aug-26 22:30N 39°15' W 076°34'0 0.0
2016-Aug-26 21:30N 39°15' W 076°34'0 0.0
2016-Aug-26 20:30N 39°15' W 076°34'0 0.0
2016-Aug-26 19:30N 39°15' W 076°34'0 0.0
2016-Aug-26 18:30N 39°15' W 076°34'0 0.0
2016-Aug-26 17:30N 39°15' W 076°34'0 0.0
2016-Aug-26 10:31N 39°15' W 076°34'0 0.0
2016-Aug-26 06:25N 39°15' W 076°34'3 0.1
2016-Aug-25 12:32N 39°13' W 076°32'10 9.9
2016-Aug-25 11:33N 39°06' W 076°24'1514.0
2016-Aug-25 10:31N 38°52' W 076°24'1714.4
2016-Aug-25 09:20N 38°35' W 076°26'3014.6
2016-Aug-25 07:19N 38°07' W 076°14'7113.6
2016-Aug-25 02:05N 36°57' W 075°58'610.4
2016-Aug-25 01:33N 36°54' W 075°53'  

Dump ship's entire track history